sensor_id;sensor_type;location;lat;lon;timestamp;temperature;humidity
22442;DHT22;11388;54.456;9.752;2023-12-28T01:24:17;8.40;99.90
22442;DHT22;11388;54.456;9.752;2023-12-28T01:39:55;8.50;99.90
22442;DHT22;11388;54.456;9.752;2023-12-28T11:30:41;10.60;99.90
22442;DHT22;11388;54.456;9.752;2023-12-28T12:20:04;9.20;99.90
22442;DHT22;11388;54.456;9.752;2023-12-28T12:22:43;9.20;99.90
22442;DHT22;11388;54.456;9.752;2023-12-28T12:25:36;9.30;99.90
22442;DHT22;11388;54.456;9.752;2023-12-28T12:28:58;9.10;99.90
22442;DHT22;11388;54.456;9.752;2023-12-28T12:42:20;9.20;99.90
22442;DHT22;11388;54.456;9.752;2023-12-28T16:44:13;9.40;99.90
22442;DHT22;11388;54.456;9.752;2023-12-28T16:46:49;9.40;99.90
22442;DHT22;11388;54.456;9.752;2023-12-28T16:49:20;9.50;99.90
22442;DHT22;11388;54.456;9.752;2023-12-28T16:51:54;9.50;99.90
22442;DHT22;11388;54.456;9.752;2023-12-28T16:54:19;9.50;99.90
22442;DHT22;11388;54.456;9.752;2023-12-28T16:56:46;9.60;99.90
22442;DHT22;11388;54.456;9.752;2023-12-28T16:59:14;9.60;99.90
22442;DHT22;11388;54.456;9.752;2023-12-28T17:01:43;9.70;99.90
22442;DHT22;11388;54.456;9.752;2023-12-28T17:04:12;9.80;99.90
22442;DHT22;11388;54.456;9.752;2023-12-28T17:06:39;9.90;99.90
22442;DHT22;11388;54.456;9.752;2023-12-28T17:09:04;9.90;99.90
22442;DHT22;11388;54.456;9.752;2023-12-28T17:11:44;10.00;99.90
22442;DHT22;11388;54.456;9.752;2023-12-28T17:14:11;10.00;99.90
22442;DHT22;11388;54.456;9.752;2023-12-28T17:19:16;9.90;99.90
22442;DHT22;11388;54.456;9.752;2023-12-28T17:21:48;9.90;99.90
22442;DHT22;11388;54.456;9.752;2023-12-28T17:24:44;10.00;99.90
22442;DHT22;11388;54.456;9.752;2023-12-28T17:27:14;10.00;99.90
22442;DHT22;11388;54.456;9.752;2023-12-28T17:29:49;10.00;99.90
22442;DHT22;11388;54.456;9.752;2023-12-28T17:32:15;10.00;99.90
22442;DHT22;11388;54.456;9.752;2023-12-28T17:34:42;10.00;99.90
22442;DHT22;11388;54.456;9.752;2023-12-28T17:37:13;10.10;99.90
22442;DHT22;11388;54.456;9.752;2023-12-28T17:39:42;10.10;99.90
22442;DHT22;11388;54.456;9.752;2023-12-28T17:42:10;10.00;99.90
22442;DHT22;11388;54.456;9.752;2023-12-28T17:44:40;10.10;99.90
22442;DHT22;11388;54.456;9.752;2023-12-28T17:47:15;9.80;99.90
22442;DHT22;11388;54.456;9.752;2023-12-28T17:49:56;9.70;99.90
22442;DHT22;11388;54.456;9.752;2023-12-28T17:55:28;9.60;99.90
22442;DHT22;11388;54.456;9.752;2023-12-28T17:58:05;9.60;99.90
22442;DHT22;11388;54.456;9.752;2023-12-28T18:00:34;9.70;99.90
22442;DHT22;11388;54.456;9.752;2023-12-28T18:03:06;9.70;99.90
22442;DHT22;11388;54.456;9.752;2023-12-28T18:05:32;9.70;99.90
22442;DHT22;11388;54.456;9.752;2023-12-28T18:07:57;9.80;99.90
22442;DHT22;11388;54.456;9.752;2023-12-28T18:10:23;9.80;99.90
22442;DHT22;11388;54.456;9.752;2023-12-28T18:12:57;9.80;99.90
22442;DHT22;11388;54.456;9.752;2023-12-28T18:15:26;9.90;99.90
22442;DHT22;11388;54.456;9.752;2023-12-28T18:17:52;9.90;99.90
22442;DHT22;11388;54.456;9.752;2023-12-28T18:20:18;10.00;99.90
22442;DHT22;11388;54.456;9.752;2023-12-28T18:22:43;10.00;99.90
22442;DHT22;11388;54.456;9.752;2023-12-28T18:25:12;10.00;99.90
22442;DHT22;11388;54.456;9.752;2023-12-28T18:27:38;10.10;99.90
22442;DHT22;11388;54.456;9.752;2023-12-28T18:30:12;10.10;99.90
22442;DHT22;11388;54.456;9.752;2023-12-28T18:32:41;10.10;99.90
22442;DHT22;11388;54.456;9.752;2023-12-28T18:35:07;10.10;99.90
22442;DHT22;11388;54.456;9.752;2023-12-28T18:37:38;10.10;99.90
22442;DHT22;11388;54.456;9.752;2023-12-28T18:40:07;10.10;99.90
22442;DHT22;11388;54.456;9.752;2023-12-28T18:42:40;10.10;99.90
22442;DHT22;11388;54.456;9.752;2023-12-28T18:45:06;10.10;99.90
22442;DHT22;11388;54.456;9.752;2023-12-28T18:47:34;10.10;99.90
22442;DHT22;11388;54.456;9.752;2023-12-28T18:50:06;10.20;99.90
22442;DHT22;11388;54.456;9.752;2023-12-28T18:52:37;10.10;99.90
22442;DHT22;11388;54.456;9.752;2023-12-28T18:55:06;10.20;99.90
22442;DHT22;11388;54.456;9.752;2023-12-28T18:57:41;10.20;99.90
22442;DHT22;11388;54.456;9.752;2023-12-28T19:00:12;10.20;99.90
22442;DHT22;11388;54.456;9.752;2023-12-28T19:02:44;10.20;99.90
22442;DHT22;11388;54.456;9.752;2023-12-28T19:05:10;10.20;99.90
22442;DHT22;11388;54.456;9.752;2023-12-28T19:07:41;10.20;99.90
22442;DHT22;11388;54.456;9.752;2023-12-28T19:10:10;10.20;99.90
22442;DHT22;11388;54.456;9.752;2023-12-28T19:12:39;10.20;99.90
22442;DHT22;11388;54.456;9.752;2023-12-28T19:15:13;10.20;99.90
22442;DHT22;11388;54.456;9.752;2023-12-28T19:17:57;10.20;99.90
22442;DHT22;11388;54.456;9.752;2023-12-28T19:20:26;10.20;99.90
22442;DHT22;11388;54.456;9.752;2023-12-28T19:23:27;10.30;99.90
22442;DHT22;11388;54.456;9.752;2023-12-28T19:26:09;10.20;99.90
22442;DHT22;11388;54.456;9.752;2023-12-28T19:28:40;10.20;99.90
22442;DHT22;11388;54.456;9.752;2023-12-28T19:31:06;10.20;99.90
22442;DHT22;11388;54.456;9.752;2023-12-28T19:33:32;10.20;99.90
22442;DHT22;11388;54.456;9.752;2023-12-28T19:36:00;10.30;99.90
22442;DHT22;11388;54.456;9.752;2023-12-28T19:38:28;10.30;99.90
22442;DHT22;11388;54.456;9.752;2023-12-28T19:41:02;10.20;99.90
22442;DHT22;11388;54.456;9.752;2023-12-28T19:43:46;10.30;99.90
22442;DHT22;11388;54.456;9.752;2023-12-28T19:46:17;10.30;99.90
22442;DHT22;11388;54.456;9.752;2023-12-28T19:48:44;10.30;99.90
22442;DHT22;11388;54.456;9.752;2023-12-28T19:51:10;10.30;99.90
22442;DHT22;11388;54.456;9.752;2023-12-28T19:53:37;10.30;99.90
22442;DHT22;11388;54.456;9.752;2023-12-28T19:56:03;10.30;99.90
22442;DHT22;11388;54.456;9.752;2023-12-28T19:58:29;10.40;99.90
22442;DHT22;11388;54.456;9.752;2023-12-28T20:00:54;10.30;99.90
22442;DHT22;11388;54.456;9.752;2023-12-28T20:03:20;10.40;99.90
22442;DHT22;11388;54.456;9.752;2023-12-28T20:05:46;10.40;99.90
22442;DHT22;11388;54.456;9.752;2023-12-28T20:08:12;10.40;99.90
22442;DHT22;11388;54.456;9.752;2023-12-28T20:10:38;10.40;99.90
22442;DHT22;11388;54.456;9.752;2023-12-28T20:13:03;10.40;99.90
22442;DHT22;11388;54.456;9.752;2023-12-28T20:15:29;10.40;99.90
22442;DHT22;11388;54.456;9.752;2023-12-28T20:17:55;10.40;99.90
22442;DHT22;11388;54.456;9.752;2023-12-28T20:20:21;10.40;99.90
22442;DHT22;11388;54.456;9.752;2023-12-28T20:22:47;10.40;99.90
22442;DHT22;11388;54.456;9.752;2023-12-28T20:25:13;10.50;99.90
22442;DHT22;11388;54.456;9.752;2023-12-28T20:27:40;10.40;99.90
22442;DHT22;11388;54.456;9.752;2023-12-28T20:30:06;10.50;99.90
22442;DHT22;11388;54.456;9.752;2023-12-28T20:32:32;10.50;99.90
22442;DHT22;11388;54.456;9.752;2023-12-28T20:34:59;10.00;99.90
22442;DHT22;11388;54.456;9.752;2023-12-28T20:37:25;9.50;99.90
22442;DHT22;11388;54.456;9.752;2023-12-28T20:39:51;9.20;99.90
22442;DHT22;11388;54.456;9.752;2023-12-28T20:42:16;8.90;99.90
22442;DHT22;11388;54.456;9.752;2023-12-28T20:44:42;8.80;99.90
22442;DHT22;11388;54.456;9.752;2023-12-28T20:47:08;8.80;99.90
22442;DHT22;11388;54.456;9.752;2023-12-28T20:49:33;8.70;99.90
22442;DHT22;11388;54.456;9.752;2023-12-28T20:51:59;8.70;99.90
22442;DHT22;11388;54.456;9.752;2023-12-28T20:54:26;8.60;99.90
22442;DHT22;11388;54.456;9.752;2023-12-28T20:57:10;8.60;99.90
22442;DHT22;11388;54.456;9.752;2023-12-28T20:59:36;9.00;99.90
22442;DHT22;11388;54.456;9.752;2023-12-28T21:02:06;8.60;99.90
22442;DHT22;11388;54.456;9.752;2023-12-28T21:04:33;9.00;99.90
22442;DHT22;11388;54.456;9.752;2023-12-28T21:06:59;9.10;99.90
22442;DHT22;11388;54.456;9.752;2023-12-28T21:09:28;8.30;99.90
22442;DHT22;11388;54.456;9.752;2023-12-28T21:11:54;8.40;99.90
22442;DHT22;11388;54.456;9.752;2023-12-28T21:14:25;8.60;99.90
22442;DHT22;11388;54.456;9.752;2023-12-28T21:16:53;9.00;99.90
22442;DHT22;11388;54.456;9.752;2023-12-28T21:19:19;9.00;99.90
22442;DHT22;11388;54.456;9.752;2023-12-28T21:21:45;9.00;99.90
22442;DHT22;11388;54.456;9.752;2023-12-28T21:24:11;8.90;99.90
22442;DHT22;11388;54.456;9.752;2023-12-28T21:26:38;9.10;99.90
22442;DHT22;11388;54.456;9.752;2023-12-28T21:29:04;8.70;99.90
22442;DHT22;11388;54.456;9.752;2023-12-28T21:31:30;8.80;99.90
22442;DHT22;11388;54.456;9.752;2023-12-28T21:33:57;9.00;99.90
22442;DHT22;11388;54.456;9.752;2023-12-28T21:36:22;8.80;99.90
22442;DHT22;11388;54.456;9.752;2023-12-28T21:38:48;9.10;99.90
22442;DHT22;11388;54.456;9.752;2023-12-28T21:41:14;8.90;99.90
22442;DHT22;11388;54.456;9.752;2023-12-28T21:43:40;8.80;99.90
22442;DHT22;11388;54.456;9.752;2023-12-28T21:46:05;8.90;99.90
22442;DHT22;11388;54.456;9.752;2023-12-28T21:48:31;9.10;99.90
22442;DHT22;11388;54.456;9.752;2023-12-28T21:50:58;9.20;99.90
22442;DHT22;11388;54.456;9.752;2023-12-28T21:53:24;9.00;99.90
22442;DHT22;11388;54.456;9.752;2023-12-28T21:55:50;9.20;99.90
22442;DHT22;11388;54.456;9.752;2023-12-28T21:58:15;9.10;99.90
22442;DHT22;11388;54.456;9.752;2023-12-28T22:00:41;9.10;99.90
22442;DHT22;11388;54.456;9.752;2023-12-28T22:03:07;9.30;99.90
22442;DHT22;11388;54.456;9.752;2023-12-28T22:05:33;9.00;99.90
22442;DHT22;11388;54.456;9.752;2023-12-28T22:08:01;9.00;99.90
22442;DHT22;11388;54.456;9.752;2023-12-28T22:10:27;9.30;99.90
22442;DHT22;11388;54.456;9.752;2023-12-28T22:12:53;9.10;99.90
22442;DHT22;11388;54.456;9.752;2023-12-28T22:15:19;9.20;99.90
22442;DHT22;11388;54.456;9.752;2023-12-28T22:17:44;9.30;99.90
22442;DHT22;11388;54.456;9.752;2023-12-28T22:20:10;9.30;99.90
22442;DHT22;11388;54.456;9.752;2023-12-28T22:22:36;9.00;99.90
22442;DHT22;11388;54.456;9.752;2023-12-28T22:25:02;9.20;99.90
22442;DHT22;11388;54.456;9.752;2023-12-28T22:27:28;9.20;99.90
22442;DHT22;11388;54.456;9.752;2023-12-28T22:29:53;9.20;99.90
22442;DHT22;11388;54.456;9.752;2023-12-28T22:32:23;9.20;99.90
22442;DHT22;11388;54.456;9.752;2023-12-28T22:34:48;9.30;99.90
22442;DHT22;11388;54.456;9.752;2023-12-28T22:37:14;9.20;99.90
22442;DHT22;11388;54.456;9.752;2023-12-28T22:39:40;9.10;99.90
22442;DHT22;11388;54.456;9.752;2023-12-28T22:42:08;9.00;99.90
22442;DHT22;11388;54.456;9.752;2023-12-28T22:44:36;8.80;99.90
22442;DHT22;11388;54.456;9.752;2023-12-28T22:47:03;8.90;99.90
22442;DHT22;11388;54.456;9.752;2023-12-28T22:49:29;8.90;99.90
22442;DHT22;11388;54.456;9.752;2023-12-28T22:51:55;8.60;99.90
22442;DHT22;11388;54.456;9.752;2023-12-28T22:54:21;8.90;99.90
22442;DHT22;11388;54.456;9.752;2023-12-28T22:56:47;8.90;99.90
22442;DHT22;11388;54.456;9.752;2023-12-28T22:59:15;8.80;99.90
22442;DHT22;11388;54.456;9.752;2023-12-28T23:01:41;8.80;99.90
22442;DHT22;11388;54.456;9.752;2023-12-28T23:04:07;8.70;99.90
22442;DHT22;11388;54.456;9.752;2023-12-28T23:06:32;8.70;99.90
22442;DHT22;11388;54.456;9.752;2023-12-28T23:08:59;8.80;99.90
22442;DHT22;11388;54.456;9.752;2023-12-28T23:11:25;8.80;99.90
22442;DHT22;11388;54.456;9.752;2023-12-28T23:13:51;8.70;99.90
22442;DHT22;11388;54.456;9.752;2023-12-28T23:16:18;8.60;99.90
22442;DHT22;11388;54.456;9.752;2023-12-28T23:18:44;8.50;99.90
22442;DHT22;11388;54.456;9.752;2023-12-28T23:21:13;8.00;99.90
22442;DHT22;11388;54.456;9.752;2023-12-28T23:23:39;7.10;99.90
22442;DHT22;11388;54.456;9.752;2023-12-28T23:26:05;7.10;99.90
22442;DHT22;11388;54.456;9.752;2023-12-28T23:28:31;7.10;99.90
22442;DHT22;11388;54.456;9.752;2023-12-28T23:30:57;7.10;99.90
22442;DHT22;11388;54.456;9.752;2023-12-28T23:33:22;7.20;99.90
22442;DHT22;11388;54.456;9.752;2023-12-28T23:35:48;7.00;99.90
22442;DHT22;11388;54.456;9.752;2023-12-28T23:38:14;7.00;99.90
22442;DHT22;11388;54.456;9.752;2023-12-28T23:40:40;7.00;99.90
22442;DHT22;11388;54.456;9.752;2023-12-28T23:43:05;7.30;99.90
22442;DHT22;11388;54.456;9.752;2023-12-28T23:45:32;7.10;99.90
22442;DHT22;11388;54.456;9.752;2023-12-28T23:47:59;7.10;99.90
22442;DHT22;11388;54.456;9.752;2023-12-28T23:50:25;7.40;99.90
22442;DHT22;11388;54.456;9.752;2023-12-28T23:52:52;7.30;99.90
22442;DHT22;11388;54.456;9.752;2023-12-28T23:55:18;7.20;99.90
22442;DHT22;11388;54.456;9.752;2023-12-28T23:57:43;7.20;99.90
